sensor_id;sensor_type;location;lat;lon;timestamp;P1;durP1;ratioP1;P2;durP2;ratioP2
3085;SDS011;52812;48.960;9.108;2023-08-20T00:00:10;12.13;;;10.07;;
3085;SDS011;52812;48.960;9.108;2023-08-20T00:02:37;11.43;;;9.87;;
3085;SDS011;52812;48.960;9.108;2023-08-20T00:05:06;16.33;;;10.57;;
3085;SDS011;52812;48.960;9.108;2023-08-20T00:07:32;12.67;;;10.33;;
3085;SDS011;52812;48.960;9.108;2023-08-20T00:09:58;14.03;;;10.57;;
3085;SDS011;52812;48.960;9.108;2023-08-20T00:12:24;12.13;;;9.60;;
3085;SDS011;52812;48.960;9.108;2023-08-20T00:14:51;14.63;;;10.60;;
3085;SDS011;52812;48.960;9.108;2023-08-20T00:17:18;12.40;;;10.00;;
3085;SDS011;52812;48.960;9.108;2023-08-20T00:19:44;12.67;;;9.27;;
3085;SDS011;52812;48.960;9.108;2023-08-20T00:22:10;13.80;;;9.90;;
3085;SDS011;52812;48.960;9.108;2023-08-20T00:24:36;12.23;;;10.00;;
3085;SDS011;52812;48.960;9.108;2023-08-20T00:27:01;13.33;;;9.67;;
3085;SDS011;52812;48.960;9.108;2023-08-20T00:29:27;19.13;;;9.87;;
3085;SDS011;52812;48.960;9.108;2023-08-20T00:31:53;18.30;;;10.70;;
3085;SDS011;52812;48.960;9.108;2023-08-20T00:34:18;15.43;;;10.10;;
3085;SDS011;52812;48.960;9.108;2023-08-20T00:36:43;13.23;;;9.30;;
3085;SDS011;52812;48.960;9.108;2023-08-20T00:39:09;17.23;;;10.07;;
3085;SDS011;52812;48.960;9.108;2023-08-20T00:41:34;12.23;;;10.00;;
3085;SDS011;52812;48.960;9.108;2023-08-20T00:44:00;14.83;;;9.53;;
3085;SDS011;52812;48.960;9.108;2023-08-20T00:46:26;12.40;;;10.10;;
3085;SDS011;52812;48.960;9.108;2023-08-20T00:48:51;12.33;;;9.97;;
3085;SDS011;52812;48.960;9.108;2023-08-20T00:51:17;13.83;;;10.07;;
3085;SDS011;52812;48.960;9.108;2023-08-20T00:53:42;13.37;;;10.40;;
3085;SDS011;52812;48.960;9.108;2023-08-20T00:56:09;12.43;;;9.50;;
3085;SDS011;52812;48.960;9.108;2023-08-20T00:58:34;17.90;;;10.60;;
3085;SDS011;52812;48.960;9.108;2023-08-20T01:01:00;18.13;;;10.67;;
3085;SDS011;52812;48.960;9.108;2023-08-20T01:03:26;16.73;;;10.70;;
3085;SDS011;52812;48.960;9.108;2023-08-20T01:05:53;13.67;;;10.47;;
3085;SDS011;52812;48.960;9.108;2023-08-20T01:11:41;12.30;;;10.13;;
3085;SDS011;52812;48.960;9.108;2023-08-20T01:14:02;16.10;;;9.93;;
3085;SDS011;52812;48.960;9.108;2023-08-20T01:16:38;13.27;;;9.60;;
3085;SDS011;52812;48.960;9.108;2023-08-20T01:19:04;12.97;;;10.13;;
3085;SDS011;52812;48.960;9.108;2023-08-20T01:21:36;14.10;;;9.83;;
3085;SDS011;52812;48.960;9.108;2023-08-20T01:24:15;14.00;;;9.77;;
3085;SDS011;52812;48.960;9.108;2023-08-20T01:29:33;12.77;;;10.13;;
3085;SDS011;52812;48.960;9.108;2023-08-20T01:32:00;15.90;;;10.77;;
3085;SDS011;52812;48.960;9.108;2023-08-20T01:34:25;13.23;;;10.77;;
3085;SDS011;52812;48.960;9.108;2023-08-20T01:36:51;15.53;;;11.13;;
3085;SDS011;52812;48.960;9.108;2023-08-20T01:39:17;15.17;;;11.03;;
3085;SDS011;52812;48.960;9.108;2023-08-20T01:41:43;17.10;;;11.97;;
3085;SDS011;52812;48.960;9.108;2023-08-20T01:44:09;17.87;;;11.77;;
3085;SDS011;52812;48.960;9.108;2023-08-20T01:46:35;14.70;;;10.70;;
3085;SDS011;52812;48.960;9.108;2023-08-20T01:49:00;16.30;;;11.00;;
3085;SDS011;52812;48.960;9.108;2023-08-20T01:51:26;17.10;;;10.70;;
3085;SDS011;52812;48.960;9.108;2023-08-20T01:53:52;12.70;;;10.47;;
3085;SDS011;52812;48.960;9.108;2023-08-20T01:56:17;15.73;;;10.90;;
3085;SDS011;52812;48.960;9.108;2023-08-20T01:58:43;12.73;;;10.60;;
3085;SDS011;52812;48.960;9.108;2023-08-20T02:01:08;16.83;;;10.13;;
3085;SDS011;52812;48.960;9.108;2023-08-20T02:03:36;15.10;;;10.67;;
3085;SDS011;52812;48.960;9.108;2023-08-20T02:06:03;12.10;;;9.80;;
3085;SDS011;52812;48.960;9.108;2023-08-20T02:08:28;14.43;;;9.90;;
3085;SDS011;52812;48.960;9.108;2023-08-20T02:11:03;15.10;;;10.57;;
3085;SDS011;52812;48.960;9.108;2023-08-20T02:13:30;14.17;;;10.30;;
3085;SDS011;52812;48.960;9.108;2023-08-20T02:16:02;13.27;;;10.80;;
3085;SDS011;52812;48.960;9.108;2023-08-20T02:18:29;11.93;;;9.97;;
3085;SDS011;52812;48.960;9.108;2023-08-20T02:20:55;18.47;;;10.40;;
3085;SDS011;52812;48.960;9.108;2023-08-20T02:23:22;15.23;;;10.07;;
3085;SDS011;52812;48.960;9.108;2023-08-20T02:25:47;11.87;;;10.30;;
3085;SDS011;52812;48.960;9.108;2023-08-20T02:28:13;12.90;;;9.83;;
3085;SDS011;52812;48.960;9.108;2023-08-20T02:30:43;12.60;;;9.70;;
3085;SDS011;52812;48.960;9.108;2023-08-20T02:33:10;13.67;;;10.37;;
3085;SDS011;52812;48.960;9.108;2023-08-20T02:35:38;13.17;;;10.47;;
3085;SDS011;52812;48.960;9.108;2023-08-20T02:38:05;11.23;;;10.00;;
3085;SDS011;52812;48.960;9.108;2023-08-20T02:40:31;15.43;;;10.60;;
3085;SDS011;52812;48.960;9.108;2023-08-20T02:42:57;14.20;;;10.37;;
3085;SDS011;52812;48.960;9.108;2023-08-20T02:45:23;17.90;;;9.97;;
3085;SDS011;52812;48.960;9.108;2023-08-20T02:47:49;12.07;;;10.33;;
3085;SDS011;52812;48.960;9.108;2023-08-20T02:50:14;13.47;;;9.67;;
3085;SDS011;52812;48.960;9.108;2023-08-20T02:52:41;12.33;;;9.50;;
3085;SDS011;52812;48.960;9.108;2023-08-20T02:55:07;15.00;;;9.80;;
3085;SDS011;52812;48.960;9.108;2023-08-20T02:57:33;13.83;;;10.10;;
3085;SDS011;52812;48.960;9.108;2023-08-20T02:59:59;16.20;;;10.30;;
3085;SDS011;52812;48.960;9.108;2023-08-20T03:02:25;13.10;;;10.60;;
3085;SDS011;52812;48.960;9.108;2023-08-20T03:04:50;15.33;;;10.70;;
3085;SDS011;52812;48.960;9.108;2023-08-20T03:07:16;11.80;;;10.00;;
3085;SDS011;52812;48.960;9.108;2023-08-20T03:09:41;15.27;;;11.60;;
3085;SDS011;52812;48.960;9.108;2023-08-20T03:12:07;14.53;;;10.87;;
3085;SDS011;52812;48.960;9.108;2023-08-20T03:14:33;16.37;;;11.63;;
3085;SDS011;52812;48.960;9.108;2023-08-20T03:16:58;18.90;;;12.53;;
3085;SDS011;52812;48.960;9.108;2023-08-20T03:19:24;12.80;;;10.50;;
3085;SDS011;52812;48.960;9.108;2023-08-20T03:21:49;14.63;;;10.70;;
3085;SDS011;52812;48.960;9.108;2023-08-20T03:24:15;13.70;;;10.97;;
3085;SDS011;52812;48.960;9.108;2023-08-20T03:26:40;13.67;;;10.53;;
3085;SDS011;52812;48.960;9.108;2023-08-20T03:29:06;13.47;;;10.83;;
3085;SDS011;52812;48.960;9.108;2023-08-20T03:31:32;18.10;;;11.20;;
3085;SDS011;52812;48.960;9.108;2023-08-20T03:33:57;14.40;;;12.07;;
3085;SDS011;52812;48.960;9.108;2023-08-20T03:36:23;14.60;;;11.10;;
3085;SDS011;52812;48.960;9.108;2023-08-20T03:38:48;15.67;;;11.80;;
3085;SDS011;52812;48.960;9.108;2023-08-20T03:41:14;18.87;;;12.10;;
3085;SDS011;52812;48.960;9.108;2023-08-20T03:43:39;18.47;;;11.97;;
3085;SDS011;52812;48.960;9.108;2023-08-20T03:46:05;15.93;;;11.40;;
3085;SDS011;52812;48.960;9.108;2023-08-20T03:48:30;14.47;;;10.70;;
3085;SDS011;52812;48.960;9.108;2023-08-20T03:50:56;14.83;;;10.97;;
3085;SDS011;52812;48.960;9.108;2023-08-20T03:53:22;15.37;;;12.20;;
3085;SDS011;52812;48.960;9.108;2023-08-20T03:55:50;15.77;;;12.20;;
3085;SDS011;52812;48.960;9.108;2023-08-20T03:58:16;18.90;;;12.30;;
3085;SDS011;52812;48.960;9.108;2023-08-20T04:00:42;13.40;;;10.30;;
3085;SDS011;52812;48.960;9.108;2023-08-20T04:03:08;14.20;;;10.80;;
3085;SDS011;52812;48.960;9.108;2023-08-20T04:05:35;12.60;;;10.20;;
3085;SDS011;52812;48.960;9.108;2023-08-20T04:08:02;12.13;;;10.10;;
3085;SDS011;52812;48.960;9.108;2023-08-20T04:10:29;12.70;;;10.50;;
3085;SDS011;52812;48.960;9.108;2023-08-20T04:12:54;12.10;;;10.10;;
3085;SDS011;52812;48.960;9.108;2023-08-20T04:15:20;12.03;;;9.87;;
3085;SDS011;52812;48.960;9.108;2023-08-20T04:17:45;14.73;;;10.33;;
3085;SDS011;52812;48.960;9.108;2023-08-20T04:20:11;13.30;;;10.30;;
3085;SDS011;52812;48.960;9.108;2023-08-20T04:22:36;13.97;;;10.07;;
3085;SDS011;52812;48.960;9.108;2023-08-20T04:25:02;11.87;;;9.70;;
3085;SDS011;52812;48.960;9.108;2023-08-20T04:27:28;12.20;;;9.80;;
3085;SDS011;52812;48.960;9.108;2023-08-20T04:29:54;12.70;;;9.77;;
3085;SDS011;52812;48.960;9.108;2023-08-20T04:32:20;11.87;;;10.00;;
3085;SDS011;52812;48.960;9.108;2023-08-20T04:34:46;12.73;;;9.50;;
3085;SDS011;52812;48.960;9.108;2023-08-20T04:37:14;11.60;;;9.53;;
3085;SDS011;52812;48.960;9.108;2023-08-20T04:39:39;15.93;;;9.90;;
3085;SDS011;52812;48.960;9.108;2023-08-20T04:42:05;13.00;;;10.67;;
3085;SDS011;52812;48.960;9.108;2023-08-20T04:44:30;12.53;;;10.03;;
3085;SDS011;52812;48.960;9.108;2023-08-20T04:46:56;13.10;;;9.60;;
3085;SDS011;52812;48.960;9.108;2023-08-20T04:49:21;13.47;;;9.97;;
3085;SDS011;52812;48.960;9.108;2023-08-20T04:51:47;13.00;;;10.77;;
3085;SDS011;52812;48.960;9.108;2023-08-20T04:54:13;13.60;;;10.80;;
3085;SDS011;52812;48.960;9.108;2023-08-20T04:56:38;13.87;;;11.17;;
3085;SDS011;52812;48.960;9.108;2023-08-20T04:59:04;16.30;;;10.60;;
3085;SDS011;52812;48.960;9.108;2023-08-20T05:01:30;12.03;;;9.47;;
3085;SDS011;52812;48.960;9.108;2023-08-20T05:03:55;14.87;;;9.90;;
3085;SDS011;52812;48.960;9.108;2023-08-20T05:06:21;12.10;;;9.80;;
3085;SDS011;52812;48.960;9.108;2023-08-20T05:08:46;10.30;;;9.17;;
3085;SDS011;52812;48.960;9.108;2023-08-20T05:11:12;13.60;;;10.20;;
3085;SDS011;52812;48.960;9.108;2023-08-20T05:13:37;13.10;;;9.47;;
3085;SDS011;52812;48.960;9.108;2023-08-20T05:16:03;12.43;;;9.83;;
3085;SDS011;52812;48.960;9.108;2023-08-20T05:18:28;18.30;;;9.50;;
3085;SDS011;52812;48.960;9.108;2023-08-20T05:20:54;15.50;;;10.90;;
3085;SDS011;52812;48.960;9.108;2023-08-20T05:23:19;11.33;;;9.43;;
3085;SDS011;52812;48.960;9.108;2023-08-20T05:25:45;14.83;;;10.10;;
3085;SDS011;52812;48.960;9.108;2023-08-20T05:28:10;11.77;;;10.17;;
3085;SDS011;52812;48.960;9.108;2023-08-20T05:30:36;17.40;;;11.60;;
3085;SDS011;52812;48.960;9.108;2023-08-20T05:33:01;14.37;;;10.07;;
3085;SDS011;52812;48.960;9.108;2023-08-20T05:35:27;13.00;;;10.10;;
3085;SDS011;52812;48.960;9.108;2023-08-20T05:37:53;15.67;;;10.97;;
3085;SDS011;52812;48.960;9.108;2023-08-20T05:40:18;11.70;;;10.30;;
3085;SDS011;52812;48.960;9.108;2023-08-20T05:42:45;11.67;;;10.20;;
3085;SDS011;52812;48.960;9.108;2023-08-20T05:45:11;11.10;;;9.90;;
3085;SDS011;52812;48.960;9.108;2023-08-20T05:47:36;11.13;;;8.93;;
3085;SDS011;52812;48.960;9.108;2023-08-20T05:50:02;9.90;;;8.30;;
3085;SDS011;52812;48.960;9.108;2023-08-20T05:52:28;12.80;;;9.00;;
3085;SDS011;52812;48.960;9.108;2023-08-20T05:54:53;10.83;;;8.33;;
3085;SDS011;52812;48.960;9.108;2023-08-20T05:57:19;13.57;;;10.60;;
3085;SDS011;52812;48.960;9.108;2023-08-20T05:59:44;11.70;;;9.13;;
3085;SDS011;52812;48.960;9.108;2023-08-20T06:02:10;12.10;;;10.47;;
3085;SDS011;52812;48.960;9.108;2023-08-20T06:04:40;14.17;;;10.63;;
3085;SDS011;52812;48.960;9.108;2023-08-20T06:07:05;11.27;;;9.83;;
3085;SDS011;52812;48.960;9.108;2023-08-20T06:09:31;12.50;;;10.10;;
3085;SDS011;52812;48.960;9.108;2023-08-20T06:11:56;9.97;;;8.97;;
3085;SDS011;52812;48.960;9.108;2023-08-20T06:14:22;10.53;;;8.70;;
3085;SDS011;52812;48.960;9.108;2023-08-20T06:16:48;11.87;;;9.87;;
3085;SDS011;52812;48.960;9.108;2023-08-20T06:19:13;9.40;;;8.50;;
3085;SDS011;52812;48.960;9.108;2023-08-20T06:21:39;10.77;;;9.30;;
3085;SDS011;52812;48.960;9.108;2023-08-20T06:24:04;11.80;;;10.47;;
3085;SDS011;52812;48.960;9.108;2023-08-20T06:26:30;11.30;;;10.10;;
3085;SDS011;52812;48.960;9.108;2023-08-20T06:28:55;12.60;;;10.63;;
3085;SDS011;52812;48.960;9.108;2023-08-20T06:31:21;12.60;;;11.30;;
3085;SDS011;52812;48.960;9.108;2023-08-20T06:33:47;12.70;;;10.90;;
3085;SDS011;52812;48.960;9.108;2023-08-20T06:36:13;14.43;;;10.77;;
3085;SDS011;52812;48.960;9.108;2023-08-20T06:38:38;13.37;;;11.97;;
3085;SDS011;52812;48.960;9.108;2023-08-20T06:41:04;14.10;;;12.17;;
3085;SDS011;52812;48.960;9.108;2023-08-20T06:43:29;15.13;;;12.40;;
3085;SDS011;52812;48.960;9.108;2023-08-20T06:45:55;14.53;;;11.90;;
3085;SDS011;52812;48.960;9.108;2023-08-20T06:48:20;12.60;;;11.20;;
3085;SDS011;52812;48.960;9.108;2023-08-20T06:50:48;17.63;;;12.80;;
3085;SDS011;52812;48.960;9.108;2023-08-20T06:53:14;15.53;;;11.30;;
3085;SDS011;52812;48.960;9.108;2023-08-20T06:55:39;15.20;;;11.43;;
3085;SDS011;52812;48.960;9.108;2023-08-20T06:58:05;13.63;;;10.73;;
3085;SDS011;52812;48.960;9.108;2023-08-20T07:00:30;13.43;;;11.47;;
3085;SDS011;52812;48.960;9.108;2023-08-20T07:02:56;15.60;;;12.00;;
3085;SDS011;52812;48.960;9.108;2023-08-20T07:05:21;12.70;;;11.30;;
3085;SDS011;52812;48.960;9.108;2023-08-20T07:07:47;13.17;;;11.77;;
3085;SDS011;52812;48.960;9.108;2023-08-20T07:10:12;12.93;;;10.97;;
3085;SDS011;52812;48.960;9.108;2023-08-20T07:12:38;14.80;;;10.37;;
3085;SDS011;52812;48.960;9.108;2023-08-20T07:15:04;12.70;;;10.20;;
3085;SDS011;52812;48.960;9.108;2023-08-20T07:17:30;12.10;;;10.50;;
3085;SDS011;52812;48.960;9.108;2023-08-20T07:19:56;10.33;;;9.33;;
3085;SDS011;52812;48.960;9.108;2023-08-20T07:22:21;12.37;;;10.83;;
3085;SDS011;52812;48.960;9.108;2023-08-20T07:24:47;11.63;;;10.50;;
3085;SDS011;52812;48.960;9.108;2023-08-20T07:27:12;11.03;;;9.90;;
3085;SDS011;52812;48.960;9.108;2023-08-20T07:29:38;11.70;;;10.60;;
3085;SDS011;52812;48.960;9.108;2023-08-20T07:32:04;11.47;;;10.27;;
3085;SDS011;52812;48.960;9.108;2023-08-20T07:34:29;11.90;;;10.70;;
3085;SDS011;52812;48.960;9.108;2023-08-20T07:36:59;13.67;;;10.50;;
3085;SDS011;52812;48.960;9.108;2023-08-20T07:39:25;10.33;;;9.23;;
3085;SDS011;52812;48.960;9.108;2023-08-20T07:41:51;10.73;;;9.70;;
3085;SDS011;52812;48.960;9.108;2023-08-20T07:44:16;11.50;;;10.07;;
3085;SDS011;52812;48.960;9.108;2023-08-20T07:46:42;10.83;;;9.73;;
3085;SDS011;52812;48.960;9.108;2023-08-20T07:49:07;11.47;;;10.27;;
3085;SDS011;52812;48.960;9.108;2023-08-20T07:51:33;9.87;;;8.97;;
3085;SDS011;52812;48.960;9.108;2023-08-20T07:53:59;11.67;;;9.63;;
3085;SDS011;52812;48.960;9.108;2023-08-20T07:56:26;10.80;;;9.20;;
3085;SDS011;52812;48.960;9.108;2023-08-20T07:58:51;12.43;;;10.40;;
3085;SDS011;52812;48.960;9.108;2023-08-20T08:01:18;11.52;;;10.13;;
3085;SDS011;52812;48.960;9.108;2023-08-20T08:03:43;11.65;;;10.15;;
3085;SDS011;52812;48.960;9.108;2023-08-20T08:06:09;10.88;;;9.77;;
3085;SDS011;52812;48.960;9.108;2023-08-20T08:08:34;13.02;;;10.43;;
3085;SDS011;52812;48.960;9.108;2023-08-20T08:11:00;11.90;;;10.70;;
3085;SDS011;52812;48.960;9.108;2023-08-20T08:13:25;11.80;;;10.60;;
3085;SDS011;52812;48.960;9.108;2023-08-20T08:15:51;11.50;;;9.90;;
3085;SDS011;52812;48.960;9.108;2023-08-20T08:18:18;11.45;;;9.40;;
3085;SDS011;52812;48.960;9.108;2023-08-20T08:20:44;15.27;;;9.75;;
3085;SDS011;52812;48.960;9.108;2023-08-20T08:23:10;11.43;;;9.30;;
3085;SDS011;52812;48.960;9.108;2023-08-20T08:25:35;10.90;;;9.45;;
3085;SDS011;52812;48.960;9.108;2023-08-20T08:28:02;11.35;;;10.18;;
3085;SDS011;52812;48.960;9.108;2023-08-20T08:30:28;14.27;;;10.30;;
3085;SDS011;52812;48.960;9.108;2023-08-20T08:32:54;11.23;;;9.50;;
3085;SDS011;52812;48.960;9.108;2023-08-20T08:35:20;10.73;;;9.73;;
3085;SDS011;52812;48.960;9.108;2023-08-20T08:37:45;11.17;;;10.00;;
3085;SDS011;52812;48.960;9.108;2023-08-20T08:40:11;12.27;;;10.23;;
3085;SDS011;52812;48.960;9.108;2023-08-20T08:42:37;11.97;;;10.77;;
3085;SDS011;52812;48.960;9.108;2023-08-20T08:45:03;14.33;;;11.20;;
3085;SDS011;52812;48.960;9.108;2023-08-20T08:47:29;12.90;;;11.50;;
3085;SDS011;52812;48.960;9.108;2023-08-20T08:49:55;11.60;;;10.40;;
3085;SDS011;52812;48.960;9.108;2023-08-20T08:52:25;13.63;;;11.10;;
3085;SDS011;52812;48.960;9.108;2023-08-20T08:54:51;12.00;;;10.63;;
3085;SDS011;52812;48.960;9.108;2023-08-20T08:57:17;13.07;;;10.80;;
3085;SDS011;52812;48.960;9.108;2023-08-20T08:59:43;12.30;;;10.40;;
3085;SDS011;52812;48.960;9.108;2023-08-20T09:02:09;13.70;;;10.47;;
3085;SDS011;52812;48.960;9.108;2023-08-20T09:04:42;13.83;;;10.70;;
3085;SDS011;52812;48.960;9.108;2023-08-20T09:07:11;11.50;;;10.30;;
3085;SDS011;52812;48.960;9.108;2023-08-20T09:09:41;13.47;;;10.63;;
3085;SDS011;52812;48.960;9.108;2023-08-20T09:12:15;13.30;;;10.53;;
3085;SDS011;52812;48.960;9.108;2023-08-20T09:14:48;11.47;;;9.53;;
3085;SDS011;52812;48.960;9.108;2023-08-20T09:17:15;10.90;;;9.80;;
3085;SDS011;52812;48.960;9.108;2023-08-20T09:19:42;12.87;;;10.47;;
3085;SDS011;52812;48.960;9.108;2023-08-20T09:22:10;11.97;;;10.77;;
3085;SDS011;52812;48.960;9.108;2023-08-20T09:24:41;15.30;;;10.80;;
3085;SDS011;52812;48.960;9.108;2023-08-20T09:27:09;12.90;;;10.90;;
3085;SDS011;52812;48.960;9.108;2023-08-20T09:29:43;11.80;;;10.60;;
3085;SDS011;52812;48.960;9.108;2023-08-20T09:32:25;13.23;;;10.87;;
3085;SDS011;52812;48.960;9.108;2023-08-20T09:34:52;12.47;;;11.17;;
3085;SDS011;52812;48.960;9.108;2023-08-20T09:37:20;10.90;;;9.80;;
3085;SDS011;52812;48.960;9.108;2023-08-20T09:39:47;12.03;;;10.20;;
3085;SDS011;52812;48.960;9.108;2023-08-20T09:42:13;11.10;;;10.00;;
3085;SDS011;52812;48.960;9.108;2023-08-20T09:44:40;11.93;;;9.70;;
3085;SDS011;52812;48.960;9.108;2023-08-20T09:47:10;12.83;;;9.47;;
3085;SDS011;52812;48.960;9.108;2023-08-20T09:49:40;10.53;;;8.53;;
3085;SDS011;52812;48.960;9.108;2023-08-20T09:52:11;10.40;;;9.30;;
3085;SDS011;52812;48.960;9.108;2023-08-20T09:57:14;10.60;;;9.17;;
3085;SDS011;52812;48.960;9.108;2023-08-20T09:59:48;11.43;;;9.50;;
3085;SDS011;52812;48.960;9.108;2023-08-20T10:02:15;10.63;;;9.63;;
3085;SDS011;52812;48.960;9.108;2023-08-20T10:04:42;10.60;;;9.50;;
3085;SDS011;52812;48.960;9.108;2023-08-20T10:07:09;10.03;;;8.97;;
3085;SDS011;52812;48.960;9.108;2023-08-20T10:09:36;10.20;;;8.80;;
3085;SDS011;52812;48.960;9.108;2023-08-20T10:12:03;11.10;;;8.23;;
3085;SDS011;52812;48.960;9.108;2023-08-20T10:14:30;11.20;;;8.63;;
3085;SDS011;52812;48.960;9.108;2023-08-20T10:16:55;12.93;;;8.77;;
3085;SDS011;52812;48.960;9.108;2023-08-20T10:19:22;9.27;;;8.37;;
3085;SDS011;52812;48.960;9.108;2023-08-20T10:21:50;10.00;;;8.57;;
3085;SDS011;52812;48.960;9.108;2023-08-20T10:24:17;10.97;;;9.83;;
3085;SDS011;52812;48.960;9.108;2023-08-20T10:26:46;9.67;;;8.63;;
3085;SDS011;52812;48.960;9.108;2023-08-20T10:32:06;9.17;;;8.27;;
3085;SDS011;52812;48.960;9.108;2023-08-20T10:34:35;9.67;;;8.77;;
3085;SDS011;52812;48.960;9.108;2023-08-20T10:37:12;8.80;;;7.57;;
3085;SDS011;52812;48.960;9.108;2023-08-20T10:39:38;9.60;;;8.30;;
3085;SDS011;52812;48.960;9.108;2023-08-20T10:47:36;10.00;;;8.60;;
3085;SDS011;52812;48.960;9.108;2023-08-20T10:50:07;8.93;;;8.10;;
3085;SDS011;52812;48.960;9.108;2023-08-20T10:52:46;9.53;;;8.30;;
3085;SDS011;52812;48.960;9.108;2023-08-20T10:55:23;9.10;;;8.20;;
3085;SDS011;52812;48.960;9.108;2023-08-20T10:57:56;12.20;;;8.17;;
3085;SDS011;52812;48.960;9.108;2023-08-20T11:00:24;13.30;;;8.37;;
3085;SDS011;52812;48.960;9.108;2023-08-20T11:02:49;10.60;;;8.77;;
3085;SDS011;52812;48.960;9.108;2023-08-20T11:05:17;8.60;;;7.70;;
3085;SDS011;52812;48.960;9.108;2023-08-20T11:07:45;10.40;;;8.30;;
3085;SDS011;52812;48.960;9.108;2023-08-20T11:10:13;10.80;;;7.80;;
3085;SDS011;52812;48.960;9.108;2023-08-20T11:12:39;10.10;;;8.60;;
3085;SDS011;52812;48.960;9.108;2023-08-20T11:15:05;9.43;;;8.50;;
3085;SDS011;52812;48.960;9.108;2023-08-20T11:17:32;8.50;;;7.70;;
3085;SDS011;52812;48.960;9.108;2023-08-20T11:19:57;10.53;;;8.37;;
3085;SDS011;52812;48.960;9.108;2023-08-20T11:22:23;9.07;;;8.17;;
3085;SDS011;52812;48.960;9.108;2023-08-20T11:24:49;9.43;;;8.53;;
3085;SDS011;52812;48.960;9.108;2023-08-20T11:27:15;10.03;;;9.03;;
3085;SDS011;52812;48.960;9.108;2023-08-20T11:29:43;18.73;;;8.50;;
3085;SDS011;52812;48.960;9.108;2023-08-20T11:32:09;9.30;;;8.20;;
3085;SDS011;52812;48.960;9.108;2023-08-20T11:34:36;9.17;;;8.27;;
3085;SDS011;52812;48.960;9.108;2023-08-20T11:37:03;10.77;;;8.67;;
3085;SDS011;52812;48.960;9.108;2023-08-20T11:39:29;10.77;;;8.63;;
3085;SDS011;52812;48.960;9.108;2023-08-20T11:41:55;8.53;;;7.73;;
3085;SDS011;52812;48.960;9.108;2023-08-20T11:44:21;8.70;;;7.90;;
3085;SDS011;52812;48.960;9.108;2023-08-20T11:46:47;8.77;;;7.87;;
3085;SDS011;52812;48.960;9.108;2023-08-20T11:49:13;11.00;;;8.80;;
3085;SDS011;52812;48.960;9.108;2023-08-20T11:51:49;8.53;;;7.63;;
3085;SDS011;52812;48.960;9.108;2023-08-20T11:54:18;8.93;;;8.03;;
3085;SDS011;52812;48.960;9.108;2023-08-20T11:56:47;8.90;;;7.93;;
3085;SDS011;52812;48.960;9.108;2023-08-20T11:59:17;9.40;;;7.87;;
3085;SDS011;52812;48.960;9.108;2023-08-20T12:01:56;8.53;;;7.70;;
3085;SDS011;52812;48.960;9.108;2023-08-20T12:04:26;8.67;;;7.87;;
3085;SDS011;52812;48.960;9.108;2023-08-20T12:07:07;8.53;;;7.60;;
3085;SDS011;52812;48.960;9.108;2023-08-20T12:09:34;11.63;;;8.13;;
3085;SDS011;52812;48.960;9.108;2023-08-20T12:12:00;11.60;;;8.93;;
3085;SDS011;52812;48.960;9.108;2023-08-20T12:14:26;10.47;;;8.20;;
3085;SDS011;52812;48.960;9.108;2023-08-20T12:16:55;11.37;;;7.77;;
3085;SDS011;52812;48.960;9.108;2023-08-20T12:19:21;8.23;;;7.43;;
3085;SDS011;52812;48.960;9.108;2023-08-20T12:21:46;11.33;;;8.20;;
3085;SDS011;52812;48.960;9.108;2023-08-20T12:24:12;8.63;;;7.73;;
3085;SDS011;52812;48.960;9.108;2023-08-20T12:26:38;8.93;;;8.00;;
3085;SDS011;52812;48.960;9.108;2023-08-20T12:29:04;8.37;;;7.40;;
3085;SDS011;52812;48.960;9.108;2023-08-20T12:31:31;10.80;;;7.07;;
3085;SDS011;52812;48.960;9.108;2023-08-20T12:33:57;7.70;;;6.90;;
3085;SDS011;52812;48.960;9.108;2023-08-20T12:36:22;8.50;;;7.60;;
3085;SDS011;52812;48.960;9.108;2023-08-20T12:38:48;8.10;;;7.30;;
3085;SDS011;52812;48.960;9.108;2023-08-20T12:41:13;7.50;;;6.80;;
3085;SDS011;52812;48.960;9.108;2023-08-20T12:43:39;8.10;;;7.30;;
3085;SDS011;52812;48.960;9.108;2023-08-20T12:46:05;10.47;;;6.90;;
3085;SDS011;52812;48.960;9.108;2023-08-20T12:48:31;7.70;;;6.90;;
3085;SDS011;52812;48.960;9.108;2023-08-20T12:50:57;9.20;;;6.77;;
3085;SDS011;52812;48.960;9.108;2023-08-20T12:53:23;7.53;;;6.80;;
3085;SDS011;52812;48.960;9.108;2023-08-20T12:55:49;7.50;;;6.37;;
3085;SDS011;52812;48.960;9.108;2023-08-20T12:58:14;7.10;;;6.40;;
3085;SDS011;52812;48.960;9.108;2023-08-20T13:00:40;7.33;;;6.47;;
3085;SDS011;52812;48.960;9.108;2023-08-20T13:03:05;8.87;;;8.00;;
3085;SDS011;52812;48.960;9.108;2023-08-20T13:05:31;10.30;;;6.70;;
3085;SDS011;52812;48.960;9.108;2023-08-20T13:07:57;8.30;;;7.10;;
3085;SDS011;52812;48.960;9.108;2023-08-20T13:10:23;8.37;;;6.80;;
3085;SDS011;52812;48.960;9.108;2023-08-20T13:12:52;7.03;;;6.40;;
3085;SDS011;52812;48.960;9.108;2023-08-20T13:15:19;7.50;;;6.80;;
3085;SDS011;52812;48.960;9.108;2023-08-20T13:17:47;8.03;;;7.20;;
3085;SDS011;52812;48.960;9.108;2023-08-20T13:20:14;7.83;;;7.03;;
3085;SDS011;52812;48.960;9.108;2023-08-20T13:22:40;8.10;;;6.90;;
3085;SDS011;52812;48.960;9.108;2023-08-20T13:25:06;11.30;;;7.00;;
3085;SDS011;52812;48.960;9.108;2023-08-20T13:27:32;7.73;;;6.60;;
3085;SDS011;52812;48.960;9.108;2023-08-20T13:29:58;8.47;;;7.00;;
3085;SDS011;52812;48.960;9.108;2023-08-20T13:32:23;8.43;;;6.60;;
3085;SDS011;52812;48.960;9.108;2023-08-20T13:34:49;7.30;;;6.60;;
3085;SDS011;52812;48.960;9.108;2023-08-20T13:37:15;7.43;;;6.30;;
3085;SDS011;52812;48.960;9.108;2023-08-20T13:39:41;7.93;;;6.20;;
3085;SDS011;52812;48.960;9.108;2023-08-20T13:42:06;8.20;;;6.10;;
3085;SDS011;52812;48.960;9.108;2023-08-20T13:44:32;7.70;;;6.60;;
3085;SDS011;52812;48.960;9.108;2023-08-20T13:46:58;7.00;;;6.20;;
3085;SDS011;52812;48.960;9.108;2023-08-20T13:49:24;6.47;;;5.87;;
3085;SDS011;52812;48.960;9.108;2023-08-20T13:51:50;7.97;;;6.50;;
3085;SDS011;52812;48.960;9.108;2023-08-20T13:54:16;7.90;;;7.10;;
3085;SDS011;52812;48.960;9.108;2023-08-20T13:56:41;7.20;;;6.20;;
3085;SDS011;52812;48.960;9.108;2023-08-20T13:59:09;7.80;;;6.20;;
3085;SDS011;52812;48.960;9.108;2023-08-20T14:01:35;7.70;;;6.73;;
3085;SDS011;52812;48.960;9.108;2023-08-20T14:04:01;10.90;;;6.80;;
3085;SDS011;52812;48.960;9.108;2023-08-20T14:06:27;7.70;;;6.80;;
3085;SDS011;52812;48.960;9.108;2023-08-20T14:08:53;9.90;;;6.57;;
3085;SDS011;52812;48.960;9.108;2023-08-20T14:11:19;8.07;;;7.10;;
3085;SDS011;52812;48.960;9.108;2023-08-20T14:13:44;6.77;;;6.17;;
3085;SDS011;52812;48.960;9.108;2023-08-20T14:16:10;7.10;;;6.40;;
3085;SDS011;52812;48.960;9.108;2023-08-20T14:18:35;7.40;;;5.90;;
3085;SDS011;52812;48.960;9.108;2023-08-20T14:21:01;8.80;;;6.63;;
3085;SDS011;52812;48.960;9.108;2023-08-20T14:23:28;9.77;;;6.20;;
3085;SDS011;52812;48.960;9.108;2023-08-20T14:25:54;8.90;;;6.47;;
3085;SDS011;52812;48.960;9.108;2023-08-20T14:28:20;7.43;;;6.50;;
3085;SDS011;52812;48.960;9.108;2023-08-20T14:30:46;7.20;;;6.50;;
3085;SDS011;52812;48.960;9.108;2023-08-20T14:33:14;10.30;;;5.90;;
3085;SDS011;52812;48.960;9.108;2023-08-20T14:35:39;7.30;;;6.60;;
3085;SDS011;52812;48.960;9.108;2023-08-20T14:38:05;9.03;;;6.60;;
3085;SDS011;52812;48.960;9.108;2023-08-20T14:40:32;8.47;;;6.50;;
3085;SDS011;52812;48.960;9.108;2023-08-20T14:43:03;6.77;;;6.07;;
3085;SDS011;52812;48.960;9.108;2023-08-20T14:45:28;7.20;;;6.50;;
3085;SDS011;52812;48.960;9.108;2023-08-20T14:47:54;7.93;;;5.87;;
3085;SDS011;52812;48.960;9.108;2023-08-20T14:50:19;8.80;;;6.70;;
3085;SDS011;52812;48.960;9.108;2023-08-20T14:52:45;7.30;;;6.23;;
3085;SDS011;52812;48.960;9.108;2023-08-20T14:55:16;7.13;;;5.93;;
3085;SDS011;52812;48.960;9.108;2023-08-20T14:57:45;7.27;;;6.57;;